sensor_id;sensor_type;location;lat;lon;timestamp;P1;durP1;ratioP1;P2;durP2;ratioP2
43809;SDS011;29440;48.208;11.162;2022-12-18T00:01:27;30.27;;;11.40;;
43809;SDS011;29440;48.208;11.162;2022-12-18T00:03:58;20.17;;;10.35;;
43809;SDS011;29440;48.208;11.162;2022-12-18T00:06:26;40.25;;;14.73;;
43809;SDS011;29440;48.208;11.162;2022-12-18T00:08:54;21.98;;;9.43;;
43809;SDS011;29440;48.208;11.162;2022-12-18T00:11:22;32.65;;;13.50;;
43809;SDS011;29440;48.208;11.162;2022-12-18T00:13:49;29.08;;;12.35;;
43809;SDS011;29440;48.208;11.162;2022-12-18T00:16:17;24.92;;;10.40;;
43809;SDS011;29440;48.208;11.162;2022-12-18T00:18:50;42.58;;;13.60;;
43809;SDS011;29440;48.208;11.162;2022-12-18T00:21:18;32.38;;;13.15;;
43809;SDS011;29440;48.208;11.162;2022-12-18T00:23:45;25.98;;;10.40;;
43809;SDS011;29440;48.208;11.162;2022-12-18T00:26:12;34.45;;;12.15;;
43809;SDS011;29440;48.208;11.162;2022-12-18T00:28:41;40.47;;;15.73;;
43809;SDS011;29440;48.208;11.162;2022-12-18T00:31:08;32.13;;;11.95;;
43809;SDS011;29440;48.208;11.162;2022-12-18T00:33:53;33.38;;;13.52;;
43809;SDS011;29440;48.208;11.162;2022-12-18T00:36:20;30.58;;;13.77;;
43809;SDS011;29440;48.208;11.162;2022-12-18T00:38:59;39.50;;;16.15;;
43809;SDS011;29440;48.208;11.162;2022-12-18T00:41:27;33.47;;;15.07;;
43809;SDS011;29440;48.208;11.162;2022-12-18T00:44:13;38.72;;;13.77;;
43809;SDS011;29440;48.208;11.162;2022-12-18T00:46:43;28.30;;;10.38;;
43809;SDS011;29440;48.208;11.162;2022-12-18T00:49:10;46.30;;;16.27;;
43809;SDS011;29440;48.208;11.162;2022-12-18T00:51:36;47.20;;;16.85;;
43809;SDS011;29440;48.208;11.162;2022-12-18T00:54:01;57.75;;;18.67;;
43809;SDS011;29440;48.208;11.162;2022-12-18T00:56:28;54.65;;;17.48;;
43809;SDS011;29440;48.208;11.162;2022-12-18T00:58:54;56.38;;;17.70;;
43809;SDS011;29440;48.208;11.162;2022-12-18T01:01:19;71.25;;;24.58;;
43809;SDS011;29440;48.208;11.162;2022-12-18T01:03:45;48.15;;;20.00;;
43809;SDS011;29440;48.208;11.162;2022-12-18T01:06:12;67.75;;;22.48;;
43809;SDS011;29440;48.208;11.162;2022-12-18T01:08:40;56.88;;;20.13;;
43809;SDS011;29440;48.208;11.162;2022-12-18T01:11:10;66.60;;;21.27;;
43809;SDS011;29440;48.208;11.162;2022-12-18T01:13:36;69.47;;;23.33;;
43809;SDS011;29440;48.208;11.162;2022-12-18T01:16:03;66.82;;;23.10;;
43809;SDS011;29440;48.208;11.162;2022-12-18T01:18:28;69.20;;;21.15;;
43809;SDS011;29440;48.208;11.162;2022-12-18T01:20:54;64.20;;;20.95;;
43809;SDS011;29440;48.208;11.162;2022-12-18T01:23:20;58.53;;;21.08;;
43809;SDS011;29440;48.208;11.162;2022-12-18T01:25:45;67.13;;;21.17;;
43809;SDS011;29440;48.208;11.162;2022-12-18T01:28:11;74.88;;;24.45;;
43809;SDS011;29440;48.208;11.162;2022-12-18T01:30:37;65.13;;;20.88;;
43809;SDS011;29440;48.208;11.162;2022-12-18T01:33:06;68.03;;;20.10;;
43809;SDS011;29440;48.208;11.162;2022-12-18T01:35:32;72.90;;;22.25;;
43809;SDS011;29440;48.208;11.162;2022-12-18T01:37:59;54.67;;;17.02;;
43809;SDS011;29440;48.208;11.162;2022-12-18T01:40:25;53.53;;;21.40;;
43809;SDS011;29440;48.208;11.162;2022-12-18T01:42:51;49.70;;;17.05;;
43809;SDS011;29440;48.208;11.162;2022-12-18T01:47:47;59.08;;;19.73;;
43809;SDS011;29440;48.208;11.162;2022-12-18T01:50:35;60.90;;;19.20;;
43809;SDS011;29440;48.208;11.162;2022-12-18T01:53:08;51.75;;;17.85;;
43809;SDS011;29440;48.208;11.162;2022-12-18T01:55:39;59.70;;;19.35;;
43809;SDS011;29440;48.208;11.162;2022-12-18T01:58:14;51.58;;;18.80;;
43809;SDS011;29440;48.208;11.162;2022-12-18T02:00:41;44.90;;;16.58;;
43809;SDS011;29440;48.208;11.162;2022-12-18T02:03:07;38.40;;;12.82;;
43809;SDS011;29440;48.208;11.162;2022-12-18T02:05:36;30.00;;;11.65;;
43809;SDS011;29440;48.208;11.162;2022-12-18T02:08:21;51.10;;;16.25;;
43809;SDS011;29440;48.208;11.162;2022-12-18T02:16:12;18.00;;;7.72;;
43809;SDS011;29440;48.208;11.162;2022-12-18T02:18:40;49.60;;;14.02;;
43809;SDS011;29440;48.208;11.162;2022-12-18T02:21:32;35.00;;;11.98;;
43809;SDS011;29440;48.208;11.162;2022-12-18T02:24:18;39.20;;;14.18;;
43809;SDS011;29440;48.208;11.162;2022-12-18T02:27:05;45.10;;;14.75;;
43809;SDS011;29440;48.208;11.162;2022-12-18T02:29:43;27.05;;;8.95;;
43809;SDS011;29440;48.208;11.162;2022-12-18T02:32:16;46.63;;;14.65;;
43809;SDS011;29440;48.208;11.162;2022-12-18T02:34:47;44.50;;;12.65;;
43809;SDS011;29440;48.208;11.162;2022-12-18T02:37:17;48.70;;;14.00;;
43809;SDS011;29440;48.208;11.162;2022-12-18T02:39:46;32.83;;;13.05;;
43809;SDS011;29440;48.208;11.162;2022-12-18T02:42:13;46.50;;;14.60;;
43809;SDS011;29440;48.208;11.162;2022-12-18T02:44:42;49.17;;;15.95;;
43809;SDS011;29440;48.208;11.162;2022-12-18T02:47:11;37.67;;;13.05;;
43809;SDS011;29440;48.208;11.162;2022-12-18T02:55:07;34.33;;;10.68;;
43809;SDS011;29440;48.208;11.162;2022-12-18T02:57:58;39.92;;;13.20;;
43809;SDS011;29440;48.208;11.162;2022-12-18T03:00:37;54.03;;;13.82;;
43809;SDS011;29440;48.208;11.162;2022-12-18T03:03:24;38.30;;;13.48;;
43809;SDS011;29440;48.208;11.162;2022-12-18T03:06:06;46.65;;;14.02;;
43809;SDS011;29440;48.208;11.162;2022-12-18T03:08:37;41.47;;;13.02;;
43809;SDS011;29440;48.208;11.162;2022-12-18T03:11:11;33.15;;;11.70;;
43809;SDS011;29440;48.208;11.162;2022-12-18T03:13:43;41.95;;;14.00;;
43809;SDS011;29440;48.208;11.162;2022-12-18T03:16:23;46.70;;;14.43;;
43809;SDS011;29440;48.208;11.162;2022-12-18T03:19:05;48.83;;;14.13;;
43809;SDS011;29440;48.208;11.162;2022-12-18T03:21:39;41.55;;;14.30;;
43809;SDS011;29440;48.208;11.162;2022-12-18T03:24:09;43.33;;;14.80;;
43809;SDS011;29440;48.208;11.162;2022-12-18T03:26:36;46.08;;;14.30;;
43809;SDS011;29440;48.208;11.162;2022-12-18T03:29:10;47.60;;;14.73;;
43809;SDS011;29440;48.208;11.162;2022-12-18T03:31:42;50.90;;;13.15;;
43809;SDS011;29440;48.208;11.162;2022-12-18T03:34:15;53.95;;;14.80;;
43809;SDS011;29440;48.208;11.162;2022-12-18T03:36:46;43.78;;;9.45;;
43809;SDS011;29440;48.208;11.162;2022-12-18T03:39:12;27.75;;;9.82;;
43809;SDS011;29440;48.208;11.162;2022-12-18T03:41:42;48.33;;;14.45;;
43809;SDS011;29440;48.208;11.162;2022-12-18T03:44:29;46.95;;;14.10;;
43809;SDS011;29440;48.208;11.162;2022-12-18T03:52:36;43.72;;;13.73;;
43809;SDS011;29440;48.208;11.162;2022-12-18T03:55:05;18.58;;;7.55;;
43809;SDS011;29440;48.208;11.162;2022-12-18T03:57:33;38.80;;;13.00;;
43809;SDS011;29440;48.208;11.162;2022-12-18T04:00:12;44.95;;;14.63;;
43809;SDS011;29440;48.208;11.162;2022-12-18T04:02:41;35.47;;;13.27;;
43809;SDS011;29440;48.208;11.162;2022-12-18T04:05:13;39.00;;;13.05;;
43809;SDS011;29440;48.208;11.162;2022-12-18T04:07:40;23.88;;;9.27;;
43809;SDS011;29440;48.208;11.162;2022-12-18T04:10:07;41.20;;;14.75;;
43809;SDS011;29440;48.208;11.162;2022-12-18T04:12:36;36.67;;;13.05;;
43809;SDS011;29440;48.208;11.162;2022-12-18T04:15:03;45.97;;;14.98;;
43809;SDS011;29440;48.208;11.162;2022-12-18T04:17:29;41.92;;;13.32;;
43809;SDS011;29440;48.208;11.162;2022-12-18T04:19:55;48.08;;;13.60;;
43809;SDS011;29440;48.208;11.162;2022-12-18T04:22:20;41.42;;;12.60;;
43809;SDS011;29440;48.208;11.162;2022-12-18T04:24:48;41.03;;;12.95;;
43809;SDS011;29440;48.208;11.162;2022-12-18T04:27:14;47.97;;;14.95;;
43809;SDS011;29440;48.208;11.162;2022-12-18T04:29:39;54.83;;;16.63;;
43809;SDS011;29440;48.208;11.162;2022-12-18T04:32:05;58.10;;;17.30;;
43809;SDS011;29440;48.208;11.162;2022-12-18T04:34:31;56.22;;;16.67;;
43809;SDS011;29440;48.208;11.162;2022-12-18T04:36:57;48.58;;;14.07;;
43809;SDS011;29440;48.208;11.162;2022-12-18T04:39:22;55.00;;;16.27;;
43809;SDS011;29440;48.208;11.162;2022-12-18T04:41:48;33.40;;;10.45;;
43809;SDS011;29440;48.208;11.162;2022-12-18T04:44:14;39.08;;;15.23;;
43809;SDS011;29440;48.208;11.162;2022-12-18T04:46:39;45.70;;;14.48;;
43809;SDS011;29440;48.208;11.162;2022-12-18T04:49:05;64.30;;;17.60;;
43809;SDS011;29440;48.208;11.162;2022-12-18T04:51:31;46.33;;;15.27;;
43809;SDS011;29440;48.208;11.162;2022-12-18T04:53:56;41.15;;;15.45;;
43809;SDS011;29440;48.208;11.162;2022-12-18T04:56:22;49.63;;;15.60;;
43809;SDS011;29440;48.208;11.162;2022-12-18T04:58:48;52.47;;;16.42;;
43809;SDS011;29440;48.208;11.162;2022-12-18T05:01:14;44.63;;;13.48;;
43809;SDS011;29440;48.208;11.162;2022-12-18T05:03:41;42.28;;;13.23;;
43809;SDS011;29440;48.208;11.162;2022-12-18T05:06:07;52.25;;;16.88;;
43809;SDS011;29440;48.208;11.162;2022-12-18T05:08:33;60.78;;;16.80;;
43809;SDS011;29440;48.208;11.162;2022-12-18T05:11:05;57.83;;;16.95;;
43809;SDS011;29440;48.208;11.162;2022-12-18T05:13:36;55.05;;;15.85;;
43809;SDS011;29440;48.208;11.162;2022-12-18T05:16:03;51.63;;;16.92;;
43809;SDS011;29440;48.208;11.162;2022-12-18T05:18:29;52.95;;;18.23;;
43809;SDS011;29440;48.208;11.162;2022-12-18T05:20:55;57.17;;;15.27;;
43809;SDS011;29440;48.208;11.162;2022-12-18T05:23:22;56.53;;;17.30;;
43809;SDS011;29440;48.208;11.162;2022-12-18T05:25:52;24.60;;;6.68;;
43809;SDS011;29440;48.208;11.162;2022-12-18T05:28:22;53.88;;;16.42;;
43809;SDS011;29440;48.208;11.162;2022-12-18T05:30:49;50.75;;;16.30;;
43809;SDS011;29440;48.208;11.162;2022-12-18T05:33:17;50.42;;;14.52;;
43809;SDS011;29440;48.208;11.162;2022-12-18T05:35:43;50.75;;;16.55;;
43809;SDS011;29440;48.208;11.162;2022-12-18T05:38:09;53.75;;;16.20;;
43809;SDS011;29440;48.208;11.162;2022-12-18T05:40:34;49.97;;;14.95;;
43809;SDS011;29440;48.208;11.162;2022-12-18T05:43:01;49.33;;;14.60;;
43809;SDS011;29440;48.208;11.162;2022-12-18T05:45:27;46.30;;;15.57;;
43809;SDS011;29440;48.208;11.162;2022-12-18T05:47:52;46.45;;;15.20;;
43809;SDS011;29440;48.208;11.162;2022-12-18T05:50:18;53.45;;;16.92;;
43809;SDS011;29440;48.208;11.162;2022-12-18T05:52:43;50.00;;;17.58;;
43809;SDS011;29440;48.208;11.162;2022-12-18T05:55:09;31.20;;;10.23;;
43809;SDS011;29440;48.208;11.162;2022-12-18T05:57:34;50.03;;;14.77;;
43809;SDS011;29440;48.208;11.162;2022-12-18T06:00:00;46.65;;;15.45;;
43809;SDS011;29440;48.208;11.162;2022-12-18T06:02:26;22.65;;;7.88;;
43809;SDS011;29440;48.208;11.162;2022-12-18T06:04:51;52.90;;;14.50;;
43809;SDS011;29440;48.208;11.162;2022-12-18T06:07:17;49.95;;;15.05;;
43809;SDS011;29440;48.208;11.162;2022-12-18T06:09:43;53.10;;;16.55;;
43809;SDS011;29440;48.208;11.162;2022-12-18T06:12:08;58.88;;;17.13;;
43809;SDS011;29440;48.208;11.162;2022-12-18T06:14:34;47.72;;;15.98;;
43809;SDS011;29440;48.208;11.162;2022-12-18T06:16:59;33.50;;;10.57;;
43809;SDS011;29440;48.208;11.162;2022-12-18T06:19:25;51.05;;;15.63;;
43809;SDS011;29440;48.208;11.162;2022-12-18T06:21:50;50.58;;;15.50;;
43809;SDS011;29440;48.208;11.162;2022-12-18T06:24:16;41.92;;;14.15;;
43809;SDS011;29440;48.208;11.162;2022-12-18T06:26:42;52.30;;;15.82;;
43809;SDS011;29440;48.208;11.162;2022-12-18T06:29:07;55.97;;;18.05;;
43809;SDS011;29440;48.208;11.162;2022-12-18T06:31:33;30.73;;;10.90;;
43809;SDS011;29440;48.208;11.162;2022-12-18T06:33:58;43.28;;;15.40;;
43809;SDS011;29440;48.208;11.162;2022-12-18T06:36:26;31.80;;;9.68;;
43809;SDS011;29440;48.208;11.162;2022-12-18T06:38:52;45.97;;;14.85;;
43809;SDS011;29440;48.208;11.162;2022-12-18T06:41:18;40.85;;;15.45;;
43809;SDS011;29440;48.208;11.162;2022-12-18T06:43:45;44.10;;;15.95;;
43809;SDS011;29440;48.208;11.162;2022-12-18T06:46:11;48.17;;;15.60;;
43809;SDS011;29440;48.208;11.162;2022-12-18T06:48:36;41.95;;;15.85;;
43809;SDS011;29440;48.208;11.162;2022-12-18T06:51:02;42.83;;;14.30;;
43809;SDS011;29440;48.208;11.162;2022-12-18T06:53:28;46.67;;;14.52;;
43809;SDS011;29440;48.208;11.162;2022-12-18T06:56:01;44.92;;;15.65;;
43809;SDS011;29440;48.208;11.162;2022-12-18T07:00:53;27.35;;;11.27;;
43809;SDS011;29440;48.208;11.162;2022-12-18T07:05:53;41.13;;;14.57;;
43809;SDS011;29440;48.208;11.162;2022-12-18T07:08:19;19.15;;;10.43;;
43809;SDS011;29440;48.208;11.162;2022-12-18T07:10:44;44.30;;;13.93;;
43809;SDS011;29440;48.208;11.162;2022-12-18T07:13:10;48.50;;;16.10;;
43809;SDS011;29440;48.208;11.162;2022-12-18T07:15:35;46.15;;;15.77;;
43809;SDS011;29440;48.208;11.162;2022-12-18T07:18:01;48.55;;;16.80;;
43809;SDS011;29440;48.208;11.162;2022-12-18T07:20:27;41.40;;;15.52;;
43809;SDS011;29440;48.208;11.162;2022-12-18T07:22:52;38.88;;;13.85;;
43809;SDS011;29440;48.208;11.162;2022-12-18T07:25:18;41.63;;;13.50;;
43809;SDS011;29440;48.208;11.162;2022-12-18T07:27:44;39.47;;;12.77;;
43809;SDS011;29440;48.208;11.162;2022-12-18T07:30:09;38.95;;;13.13;;
43809;SDS011;29440;48.208;11.162;2022-12-18T07:32:36;21.52;;;11.27;;
43809;SDS011;29440;48.208;11.162;2022-12-18T07:35:02;37.38;;;13.85;;
43809;SDS011;29440;48.208;11.162;2022-12-18T07:37:27;29.10;;;11.60;;
43809;SDS011;29440;48.208;11.162;2022-12-18T07:39:53;38.03;;;12.70;;
43809;SDS011;29440;48.208;11.162;2022-12-18T07:42:18;29.10;;;12.40;;
43809;SDS011;29440;48.208;11.162;2022-12-18T07:44:56;35.70;;;14.10;;
43809;SDS011;29440;48.208;11.162;2022-12-18T07:47:26;40.78;;;13.93;;
43809;SDS011;29440;48.208;11.162;2022-12-18T07:49:52;28.05;;;10.48;;
43809;SDS011;29440;48.208;11.162;2022-12-18T07:52:18;41.35;;;14.73;;
43809;SDS011;29440;48.208;11.162;2022-12-18T07:54:43;39.85;;;13.13;;
43809;SDS011;29440;48.208;11.162;2022-12-18T07:57:09;22.77;;;10.02;;
43809;SDS011;29440;48.208;11.162;2022-12-18T07:59:35;33.97;;;11.02;;
43809;SDS011;29440;48.208;11.162;2022-12-18T08:02:01;23.85;;;9.18;;
43809;SDS011;29440;48.208;11.162;2022-12-18T08:04:26;40.92;;;13.95;;
43809;SDS011;29440;48.208;11.162;2022-12-18T08:06:52;37.78;;;11.02;;
43809;SDS011;29440;48.208;11.162;2022-12-18T08:09:17;35.10;;;12.35;;
43809;SDS011;29440;48.208;11.162;2022-12-18T08:11:49;28.90;;;12.07;;
43809;SDS011;29440;48.208;11.162;2022-12-18T08:14:32;36.13;;;9.75;;
43809;SDS011;29440;48.208;11.162;2022-12-18T08:16:58;32.53;;;12.25;;
43809;SDS011;29440;48.208;11.162;2022-12-18T08:19:23;39.50;;;12.75;;
43809;SDS011;29440;48.208;11.162;2022-12-18T08:21:49;35.05;;;14.93;;
43809;SDS011;29440;48.208;11.162;2022-12-18T08:24:14;26.05;;;10.63;;
43809;SDS011;29440;48.208;11.162;2022-12-18T08:26:40;40.75;;;13.60;;
43809;SDS011;29440;48.208;11.162;2022-12-18T08:29:05;28.60;;;10.75;;
43809;SDS011;29440;48.208;11.162;2022-12-18T08:31:31;19.15;;;7.47;;
43809;SDS011;29440;48.208;11.162;2022-12-18T08:33:57;22.17;;;8.65;;
43809;SDS011;29440;48.208;11.162;2022-12-18T08:36:23;28.73;;;11.73;;
43809;SDS011;29440;48.208;11.162;2022-12-18T08:38:49;25.88;;;9.90;;
43809;SDS011;29440;48.208;11.162;2022-12-18T08:41:23;39.80;;;12.63;;
43809;SDS011;29440;48.208;11.162;2022-12-18T08:43:49;38.22;;;12.65;;
43809;SDS011;29440;48.208;11.162;2022-12-18T08:46:34;38.42;;;12.68;;
43809;SDS011;29440;48.208;11.162;2022-12-18T08:49:02;40.38;;;13.38;;
43809;SDS011;29440;48.208;11.162;2022-12-18T08:51:28;33.10;;;11.32;;
43809;SDS011;29440;48.208;11.162;2022-12-18T08:53:54;45.65;;;13.88;;
43809;SDS011;29440;48.208;11.162;2022-12-18T08:56:19;52.00;;;13.60;;
43809;SDS011;29440;48.208;11.162;2022-12-18T08:58:45;35.13;;;11.95;;
43809;SDS011;29440;48.208;11.162;2022-12-18T09:01:11;35.75;;;11.98;;
43809;SDS011;29440;48.208;11.162;2022-12-18T09:03:38;30.85;;;11.73;;
43809;SDS011;29440;48.208;11.162;2022-12-18T09:06:04;13.55;;;6.15;;
43809;SDS011;29440;48.208;11.162;2022-12-18T09:08:30;30.30;;;12.80;;
43809;SDS011;29440;48.208;11.162;2022-12-18T09:13:55;42.13;;;13.10;;
43809;SDS011;29440;48.208;11.162;2022-12-18T09:16:26;36.60;;;11.73;;
43809;SDS011;29440;48.208;11.162;2022-12-18T09:19:01;42.05;;;13.20;;
43809;SDS011;29440;48.208;11.162;2022-12-18T09:21:30;36.67;;;13.40;;
43809;SDS011;29440;48.208;11.162;2022-12-18T09:23:57;36.35;;;12.98;;
43809;SDS011;29440;48.208;11.162;2022-12-18T09:26:24;40.58;;;15.18;;
43809;SDS011;29440;48.208;11.162;2022-12-18T09:28:50;39.13;;;13.27;;
43809;SDS011;29440;48.208;11.162;2022-12-18T09:31:16;28.00;;;11.15;;
43809;SDS011;29440;48.208;11.162;2022-12-18T09:33:44;30.70;;;10.63;;
43809;SDS011;29440;48.208;11.162;2022-12-18T09:36:11;30.58;;;11.35;;
43809;SDS011;29440;48.208;11.162;2022-12-18T09:38:39;29.85;;;10.32;;
43809;SDS011;29440;48.208;11.162;2022-12-18T09:43:58;29.20;;;11.57;;
43809;SDS011;29440;48.208;11.162;2022-12-18T09:46:30;26.48;;;10.98;;
43809;SDS011;29440;48.208;11.162;2022-12-18T09:49:03;27.65;;;10.55;;
43809;SDS011;29440;48.208;11.162;2022-12-18T09:51:45;33.63;;;12.95;;
43809;SDS011;29440;48.208;11.162;2022-12-18T09:54:21;24.90;;;10.57;;
43809;SDS011;29440;48.208;11.162;2022-12-18T09:56:50;36.67;;;12.27;;
43809;SDS011;29440;48.208;11.162;2022-12-18T10:00:18;26.30;;;12.05;;
43809;SDS011;29440;48.208;11.162;2022-12-18T10:02:19;40.15;;;13.15;;
43809;SDS011;29440;48.208;11.162;2022-12-18T10:04:51;28.67;;;11.50;;
43809;SDS011;29440;48.208;11.162;2022-12-18T10:07:50;29.40;;;9.15;;
43809;SDS011;29440;48.208;11.162;2022-12-18T10:15:47;39.50;;;13.43;;
43809;SDS011;29440;48.208;11.162;2022-12-18T10:24:17;31.73;;;12.27;;
43809;SDS011;29440;48.208;11.162;2022-12-18T10:26:46;32.88;;;11.85;;
43809;SDS011;29440;48.208;11.162;2022-12-18T10:29:13;28.00;;;11.00;;
43809;SDS011;29440;48.208;11.162;2022-12-18T10:31:41;30.77;;;11.18;;
43809;SDS011;29440;48.208;11.162;2022-12-18T10:34:11;35.22;;;12.10;;
43809;SDS011;29440;48.208;11.162;2022-12-18T10:36:37;26.33;;;9.23;;
43809;SDS011;29440;48.208;11.162;2022-12-18T10:41:47;32.17;;;11.20;;
43809;SDS011;29440;48.208;11.162;2022-12-18T10:46:50;32.30;;;12.18;;
43809;SDS011;29440;48.208;11.162;2022-12-18T10:49:27;43.67;;;13.93;;
43809;SDS011;29440;48.208;11.162;2022-12-18T10:52:11;33.08;;;11.65;;
43809;SDS011;29440;48.208;11.162;2022-12-18T10:54:52;33.72;;;10.40;;
43809;SDS011;29440;48.208;11.162;2022-12-18T10:57:37;34.08;;;13.38;;
43809;SDS011;29440;48.208;11.162;2022-12-18T11:02:55;30.58;;;12.60;;
43809;SDS011;29440;48.208;11.162;2022-12-18T11:05:32;29.92;;;10.43;;
43809;SDS011;29440;48.208;11.162;2022-12-18T11:07:59;39.63;;;14.38;;
43809;SDS011;29440;48.208;11.162;2022-12-18T11:10:31;35.47;;;14.00;;
43809;SDS011;29440;48.208;11.162;2022-12-18T11:15:48;37.00;;;12.57;;
43809;SDS011;29440;48.208;11.162;2022-12-18T11:21:06;31.42;;;11.02;;
43809;SDS011;29440;48.208;11.162;2022-12-18T11:23:37;24.00;;;8.90;;
43809;SDS011;29440;48.208;11.162;2022-12-18T11:26:17;30.25;;;10.98;;
43809;SDS011;29440;48.208;11.162;2022-12-18T11:28:49;32.90;;;12.85;;
43809;SDS011;29440;48.208;11.162;2022-12-18T11:31:32;33.58;;;11.48;;
43809;SDS011;29440;48.208;11.162;2022-12-18T11:36:57;40.30;;;12.45;;
43809;SDS011;29440;48.208;11.162;2022-12-18T11:39:30;23.23;;;8.85;;
43809;SDS011;29440;48.208;11.162;2022-12-18T11:42:12;31.77;;;12.13;;
43809;SDS011;29440;48.208;11.162;2022-12-18T11:44:52;33.55;;;11.65;;
43809;SDS011;29440;48.208;11.162;2022-12-18T11:49:56;33.92;;;12.38;;
43809;SDS011;29440;48.208;11.162;2022-12-18T11:52:27;25.23;;;9.20;;
43809;SDS011;29440;48.208;11.162;2022-12-18T11:55:05;34.03;;;10.63;;
43809;SDS011;29440;48.208;11.162;2022-12-18T11:57:55;33.05;;;10.70;;
43809;SDS011;29440;48.208;11.162;2022-12-18T12:00:32;34.40;;;11.60;;
43809;SDS011;29440;48.208;11.162;2022-12-18T12:06:16;30.38;;;11.15;;
43809;SDS011;29440;48.208;11.162;2022-12-18T12:17:11;28.73;;;9.50;;
43809;SDS011;29440;48.208;11.162;2022-12-18T12:20:04;21.08;;;7.93;;
43809;SDS011;29440;48.208;11.162;2022-12-18T12:23:00;30.25;;;12.38;;
43809;SDS011;29440;48.208;11.162;2022-12-18T12:25:39;28.55;;;11.27;;
43809;SDS011;29440;48.208;11.162;2022-12-18T12:34:16;28.30;;;10.07;;
43809;SDS011;29440;48.208;11.162;2022-12-18T12:41:56;31.42;;;11.35;;
43809;SDS011;29440;48.208;11.162;2022-12-18T12:44:43;29.20;;;11.15;;
43809;SDS011;29440;48.208;11.162;2022-12-18T12:47:14;35.97;;;12.70;;
43809;SDS011;29440;48.208;11.162;2022-12-18T12:49:56;32.85;;;12.30;;
43809;SDS011;29440;48.208;11.162;2022-12-18T12:55:00;31.35;;;11.63;;
43809;SDS011;29440;48.208;11.162;2022-12-18T13:00:39;26.80;;;9.40;;
43809;SDS011;29440;48.208;11.162;2022-12-18T13:06:23;33.05;;;11.70;;
43809;SDS011;29440;48.208;11.162;2022-12-18T13:08:54;38.33;;;13.57;;
43809;SDS011;29440;48.208;11.162;2022-12-18T13:11:30;25.70;;;10.40;;
43809;SDS011;29440;48.208;11.162;2022-12-18T13:14:26;32.53;;;11.52;;
43809;SDS011;29440;48.208;11.162;2022-12-18T13:17:17;30.40;;;11.27;;
43809;SDS011;29440;48.208;11.162;2022-12-18T13:19:50;26.73;;;10.45;;
43809;SDS011;29440;48.208;11.162;2022-12-18T13:22:33;31.70;;;12.57;;
43809;SDS011;29440;48.208;11.162;2022-12-18T13:25:02;33.80;;;11.80;;
43809;SDS011;29440;48.208;11.162;2022-12-18T13:38:23;37.03;;;15.18;;
43809;SDS011;29440;48.208;11.162;2022-12-18T13:40:58;42.63;;;16.38;;
43809;SDS011;29440;48.208;11.162;2022-12-18T13:43:29;42.63;;;14.63;;
43809;SDS011;29440;48.208;11.162;2022-12-18T13:46:03;44.40;;;15.32;;
43809;SDS011;29440;48.208;11.162;2022-12-18T13:48:49;54.53;;;18.67;;
43809;SDS011;29440;48.208;11.162;2022-12-18T13:51:17;46.92;;;18.05;;
43809;SDS011;29440;48.208;11.162;2022-12-18T13:53:50;54.38;;;19.20;;
43809;SDS011;29440;48.208;11.162;2022-12-18T13:56:23;47.15;;;17.13;;
43809;SDS011;29440;48.208;11.162;2022-12-18T13:59:10;48.13;;;17.58;;
43809;SDS011;29440;48.208;11.162;2022-12-18T14:01:58;43.70;;;15.48;;
43809;SDS011;29440;48.208;11.162;2022-12-18T14:04:29;42.17;;;15.38;;
43809;SDS011;29440;48.208;11.162;2022-12-18T14:15:06;47.05;;;13.65;;
43809;SDS011;29440;48.208;11.162;2022-12-18T14:20:57;40.72;;;13.80;;
43809;SDS011;29440;48.208;11.162;2022-12-18T14:26:01;46.10;;;14.38;;
43809;SDS011;29440;48.208;11.162;2022-12-18T14:28:44;38.95;;;15.00;;
43809;SDS011;29440;48.208;11.162;2022-12-18T14:31:18;38.55;;;14.90;;
43809;SDS011;29440;48.208;11.162;2022-12-18T14:33:48;33.90;;;10.48;;
43809;SDS011;29440;48.208;11.162;2022-12-18T14:36:20;36.08;;;12.65;;
43809;SDS011;29440;48.208;11.162;2022-12-18T14:38:49;46.15;;;15.50;;
43809;SDS011;29440;48.208;11.162;2022-12-18T14:41:17;43.17;;;14.90;;
43809;SDS011;29440;48.208;11.162;2022-12-18T14:43:45;31.35;;;11.65;;
43809;SDS011;29440;48.208;11.162;2022-12-18T14:46:27;30.40;;;11.30;;
43809;SDS011;29440;48.208;11.162;2022-12-18T14:48:53;24.83;;;10.35;;
43809;SDS011;29440;48.208;11.162;2022-12-18T14:51:20;23.08;;;10.38;;
43809;SDS011;29440;48.208;11.162;2022-12-18T14:53:52;34.58;;;13.77;;
43809;SDS011;29440;48.208;11.162;2022-12-18T14:56:24;33.25;;;12.85;;
43809;SDS011;29440;48.208;11.162;2022-12-18T15:01:31;31.50;;;11.18;;
43809;SDS011;29440;48.208;11.162;2022-12-18T15:06:50;41.25;;;12.38;;
43809;SDS011;29440;48.208;11.162;2022-12-18T15:09:43;47.45;;;16.17;;
43809;SDS011;29440;48.208;11.162;2022-12-18T15:23:14;33.08;;;12.15;;
43809;SDS011;29440;48.208;11.162;2022-12-18T15:25:43;38.67;;;11.82;;
43809;SDS011;29440;48.208;11.162;2022-12-18T15:28:16;28.33;;;11.00;;
43809;SDS011;29440;48.208;11.162;2022-12-18T15:34:27;37.95;;;12.57;;
43809;SDS011;29440;48.208;11.162;2022-12-18T15:36:33;32.67;;;13.57;;
43809;SDS011;29440;48.208;11.162;2022-12-18T15:39:01;29.83;;;10.10;;
43809;SDS011;29440;48.208;11.162;2022-12-18T15:41:27;22.48;;;9.63;;
43809;SDS011;29440;48.208;11.162;2022-12-18T15:43:52;36.42;;;14.02;;
43809;SDS011;29440;48.208;11.162;2022-12-18T15:46:19;42.33;;;13.52;;
43809;SDS011;29440;48.208;11.162;2022-12-18T15:48:47;19.83;;;7.30;;
43809;SDS011;29440;48.208;11.162;2022-12-18T15:53:42;30.83;;;12.82;;
43809;SDS011;29440;48.208;11.162;2022-12-18T15:56:11;28.08;;;12.10;;
43809;SDS011;29440;48.208;11.162;2022-12-18T15:58:57;29.13;;;11.60;;
43809;SDS011;29440;48.208;11.162;2022-12-18T16:01:24;30.45;;;12.10;;
43809;SDS011;29440;48.208;11.162;2022-12-18T16:03:51;40.25;;;12.48;;
43809;SDS011;29440;48.208;11.162;2022-12-18T16:06:18;35.47;;;12.05;;
43809;SDS011;29440;48.208;11.162;2022-12-18T16:08:44;28.27;;;10.85;;
43809;SDS011;29440;48.208;11.162;2022-12-18T16:14:03;30.38;;;11.13;;
43809;SDS011;29440;48.208;11.162;2022-12-18T16:16:40;27.23;;;10.88;;
43809;SDS011;29440;48.208;11.162;2022-12-18T16:19:06;31.60;;;13.27;;
43809;SDS011;29440;48.208;11.162;2022-12-18T16:21:32;14.15;;;5.63;;
43809;SDS011;29440;48.208;11.162;2022-12-18T16:23:58;23.15;;;8.27;;
43809;SDS011;29440;48.208;11.162;2022-12-18T16:26:23;33.97;;;12.20;;
43809;SDS011;29440;48.208;11.162;2022-12-18T16:28:49;30.38;;;11.57;;
43809;SDS011;29440;48.208;11.162;2022-12-18T16:31:14;37.28;;;12.05;;
43809;SDS011;29440;48.208;11.162;2022-12-18T16:33:40;28.38;;;12.40;;
43809;SDS011;29440;48.208;11.162;2022-12-18T16:36:05;39.67;;;12.55;;
43809;SDS011;29440;48.208;11.162;2022-12-18T16:38:32;29.55;;;9.82;;
43809;SDS011;29440;48.208;11.162;2022-12-18T16:40:58;27.98;;;13.00;;
43809;SDS011;29440;48.208;11.162;2022-12-18T16:43:42;31.42;;;12.60;;
43809;SDS011;29440;48.208;11.162;2022-12-18T16:46:07;34.17;;;13.85;;
43809;SDS011;29440;48.208;11.162;2022-12-18T16:48:33;20.27;;;10.93;;
43809;SDS011;29440;48.208;11.162;2022-12-18T16:50:59;37.42;;;13.32;;